sensor_id;sensor_type;location;lat;lon;timestamp;P1;durP1;ratioP1;P2;durP2;ratioP2
23586;SDS011;11971;51.148;4.104;2023-03-01T00:02:26;60.30;;;31.90;;
23586;SDS011;11971;51.148;4.104;2023-03-01T00:04:53;59.92;;;32.40;;
23586;SDS011;11971;51.148;4.104;2023-03-01T00:07:21;55.22;;;31.73;;
23586;SDS011;11971;51.148;4.104;2023-03-01T00:09:47;56.22;;;32.13;;
23586;SDS011;11971;51.148;4.104;2023-03-01T00:12:14;57.90;;;31.77;;
23586;SDS011;11971;51.148;4.104;2023-03-01T00:14:41;59.40;;;31.77;;
23586;SDS011;11971;51.148;4.104;2023-03-01T00:17:07;62.60;;;32.67;;
23586;SDS011;11971;51.148;4.104;2023-03-01T00:19:34;60.00;;;32.33;;
23586;SDS011;11971;51.148;4.104;2023-03-01T00:22:01;60.85;;;33.05;;
23586;SDS011;11971;51.148;4.104;2023-03-01T00:24:29;59.47;;;32.22;;
23586;SDS011;11971;51.148;4.104;2023-03-01T00:26:56;59.08;;;33.00;;
23586;SDS011;11971;51.148;4.104;2023-03-01T00:29:23;61.15;;;32.53;;
23586;SDS011;11971;51.148;4.104;2023-03-01T00:31:50;59.88;;;32.58;;
23586;SDS011;11971;51.148;4.104;2023-03-01T00:34:17;57.78;;;32.38;;
23586;SDS011;11971;51.148;4.104;2023-03-01T00:36:43;58.70;;;32.38;;
23586;SDS011;11971;51.148;4.104;2023-03-01T00:39:11;62.80;;;33.45;;
23586;SDS011;11971;51.148;4.104;2023-03-01T00:44:07;66.40;;;31.73;;
23586;SDS011;11971;51.148;4.104;2023-03-01T00:46:35;57.95;;;31.90;;
23586;SDS011;11971;51.148;4.104;2023-03-01T00:49:01;59.30;;;31.63;;
23586;SDS011;11971;51.148;4.104;2023-03-01T00:51:29;57.63;;;32.45;;
23586;SDS011;11971;51.148;4.104;2023-03-01T00:53:57;56.97;;;32.28;;
23586;SDS011;11971;51.148;4.104;2023-03-01T00:56:25;64.68;;;32.83;;
23586;SDS011;11971;51.148;4.104;2023-03-01T00:58:53;62.63;;;32.95;;
23586;SDS011;11971;51.148;4.104;2023-03-01T01:01:20;60.05;;;32.13;;
23586;SDS011;11971;51.148;4.104;2023-03-01T01:03:48;56.60;;;31.80;;
23586;SDS011;11971;51.148;4.104;2023-03-01T01:06:16;61.85;;;33.47;;
23586;SDS011;11971;51.148;4.104;2023-03-01T01:08:43;55.00;;;32.08;;
23586;SDS011;11971;51.148;4.104;2023-03-01T01:11:10;60.20;;;31.98;;
23586;SDS011;11971;51.148;4.104;2023-03-01T01:13:37;59.80;;;32.63;;
23586;SDS011;11971;51.148;4.104;2023-03-01T01:16:06;57.00;;;32.35;;
23586;SDS011;11971;51.148;4.104;2023-03-01T01:18:33;59.67;;;32.50;;
23586;SDS011;11971;51.148;4.104;2023-03-01T01:21:03;55.28;;;32.20;;
23586;SDS011;11971;51.148;4.104;2023-03-01T01:23:30;55.85;;;31.92;;
23586;SDS011;11971;51.148;4.104;2023-03-01T01:25:57;56.33;;;31.02;;
23586;SDS011;11971;51.148;4.104;2023-03-01T01:28:23;58.30;;;31.77;;
23586;SDS011;11971;51.148;4.104;2023-03-01T01:30:50;55.97;;;31.85;;
23586;SDS011;11971;51.148;4.104;2023-03-01T01:33:18;55.92;;;32.15;;
23586;SDS011;11971;51.148;4.104;2023-03-01T01:35:45;59.88;;;32.90;;
23586;SDS011;11971;51.148;4.104;2023-03-01T01:38:11;60.47;;;31.80;;
23586;SDS011;11971;51.148;4.104;2023-03-01T01:40:42;55.03;;;31.75;;
23586;SDS011;11971;51.148;4.104;2023-03-01T01:43:12;56.92;;;31.90;;
23586;SDS011;11971;51.148;4.104;2023-03-01T01:45:44;56.13;;;31.98;;
23586;SDS011;11971;51.148;4.104;2023-03-01T01:48:12;53.85;;;31.77;;
23586;SDS011;11971;51.148;4.104;2023-03-01T01:50:41;55.58;;;32.00;;
23586;SDS011;11971;51.148;4.104;2023-03-01T01:53:10;59.42;;;32.95;;
23586;SDS011;11971;51.148;4.104;2023-03-01T01:55:39;60.95;;;33.10;;
23586;SDS011;11971;51.148;4.104;2023-03-01T01:58:08;57.50;;;32.38;;
23586;SDS011;11971;51.148;4.104;2023-03-01T02:00:36;58.15;;;32.60;;
23586;SDS011;11971;51.148;4.104;2023-03-01T02:03:05;58.28;;;32.78;;
23586;SDS011;11971;51.148;4.104;2023-03-01T02:05:34;59.15;;;32.25;;
23586;SDS011;11971;51.148;4.104;2023-03-01T02:08:05;58.88;;;32.95;;
23586;SDS011;11971;51.148;4.104;2023-03-01T02:10:32;65.03;;;32.78;;
23586;SDS011;11971;51.148;4.104;2023-03-01T02:12:59;59.67;;;33.28;;
23586;SDS011;11971;51.148;4.104;2023-03-01T02:15:26;57.25;;;31.95;;
23586;SDS011;11971;51.148;4.104;2023-03-01T02:17:53;58.15;;;32.65;;
23586;SDS011;11971;51.148;4.104;2023-03-01T02:20:22;57.75;;;31.63;;
23586;SDS011;11971;51.148;4.104;2023-03-01T02:22:53;60.38;;;33.25;;
23586;SDS011;11971;51.148;4.104;2023-03-01T02:25:25;55.15;;;32.25;;
23586;SDS011;11971;51.148;4.104;2023-03-01T02:27:58;55.28;;;31.95;;
23586;SDS011;11971;51.148;4.104;2023-03-01T02:30:32;59.13;;;32.83;;
23586;SDS011;11971;51.148;4.104;2023-03-01T02:35:27;51.80;;;30.92;;
23586;SDS011;11971;51.148;4.104;2023-03-01T02:37:55;47.28;;;28.60;;
23586;SDS011;11971;51.148;4.104;2023-03-01T02:40:22;53.65;;;30.88;;
23586;SDS011;11971;51.148;4.104;2023-03-01T02:42:50;55.38;;;31.30;;
23586;SDS011;11971;51.148;4.104;2023-03-01T02:45:18;57.60;;;32.40;;
23586;SDS011;11971;51.148;4.104;2023-03-01T02:47:46;54.97;;;31.25;;
23586;SDS011;11971;51.148;4.104;2023-03-01T02:50:18;54.13;;;31.38;;
23586;SDS011;11971;51.148;4.104;2023-03-01T02:52:53;58.45;;;31.58;;
23586;SDS011;11971;51.148;4.104;2023-03-01T02:55:22;54.50;;;30.88;;
23586;SDS011;11971;51.148;4.104;2023-03-01T02:57:49;54.00;;;31.38;;
23586;SDS011;11971;51.148;4.104;2023-03-01T03:00:17;53.17;;;30.77;;
23586;SDS011;11971;51.148;4.104;2023-03-01T03:02:47;58.38;;;32.10;;
23586;SDS011;11971;51.148;4.104;2023-03-01T03:07:42;53.95;;;31.55;;
23586;SDS011;11971;51.148;4.104;2023-03-01T03:10:10;56.67;;;32.25;;
23586;SDS011;11971;51.148;4.104;2023-03-01T03:12:38;54.42;;;31.85;;
23586;SDS011;11971;51.148;4.104;2023-03-01T03:15:06;56.05;;;31.75;;
23586;SDS011;11971;51.148;4.104;2023-03-01T03:17:33;56.58;;;31.25;;
23586;SDS011;11971;51.148;4.104;2023-03-01T03:20:02;53.60;;;31.35;;
23586;SDS011;11971;51.148;4.104;2023-03-01T03:22:30;53.08;;;31.17;;
23586;SDS011;11971;51.148;4.104;2023-03-01T03:24:58;53.88;;;31.35;;
23586;SDS011;11971;51.148;4.104;2023-03-01T03:27:25;53.83;;;31.00;;
23586;SDS011;11971;51.148;4.104;2023-03-01T03:29:52;52.03;;;31.10;;
23586;SDS011;11971;51.148;4.104;2023-03-01T03:32:18;54.78;;;32.13;;
23586;SDS011;11971;51.148;4.104;2023-03-01T03:34:45;53.45;;;31.10;;
23586;SDS011;11971;51.148;4.104;2023-03-01T03:37:13;58.88;;;33.00;;
23586;SDS011;11971;51.148;4.104;2023-03-01T03:39:53;56.22;;;31.33;;
23586;SDS011;11971;51.148;4.104;2023-03-01T03:42:20;53.08;;;31.35;;
23586;SDS011;11971;51.148;4.104;2023-03-01T03:44:47;59.25;;;32.65;;
23586;SDS011;11971;51.148;4.104;2023-03-01T03:47:15;55.38;;;32.05;;
23586;SDS011;11971;51.148;4.104;2023-03-01T03:49:42;55.05;;;32.67;;
23586;SDS011;11971;51.148;4.104;2023-03-01T03:52:08;53.95;;;31.92;;
23586;SDS011;11971;51.148;4.104;2023-03-01T03:54:39;58.10;;;32.33;;
23586;SDS011;11971;51.148;4.104;2023-03-01T03:57:06;53.80;;;31.70;;
23586;SDS011;11971;51.148;4.104;2023-03-01T03:59:33;52.42;;;31.52;;
23586;SDS011;11971;51.148;4.104;2023-03-01T04:01:59;53.13;;;31.77;;
23586;SDS011;11971;51.148;4.104;2023-03-01T04:04:26;55.35;;;32.55;;
23586;SDS011;11971;51.148;4.104;2023-03-01T04:06:53;62.47;;;33.53;;
23586;SDS011;11971;51.148;4.104;2023-03-01T04:09:19;56.35;;;32.55;;
23586;SDS011;11971;51.148;4.104;2023-03-01T04:11:47;59.42;;;34.17;;
23586;SDS011;11971;51.148;4.104;2023-03-01T04:14:14;55.22;;;32.72;;
23586;SDS011;11971;51.148;4.104;2023-03-01T04:16:41;54.20;;;32.10;;
23586;SDS011;11971;51.148;4.104;2023-03-01T04:19:07;58.20;;;33.22;;
23586;SDS011;11971;51.148;4.104;2023-03-01T04:21:34;57.45;;;32.80;;
23586;SDS011;11971;51.148;4.104;2023-03-01T04:24:01;60.83;;;33.40;;
23586;SDS011;11971;51.148;4.104;2023-03-01T04:26:28;60.20;;;33.17;;
23586;SDS011;11971;51.148;4.104;2023-03-01T04:28:56;58.30;;;32.28;;
23586;SDS011;11971;51.148;4.104;2023-03-01T04:31:23;57.85;;;32.63;;
23586;SDS011;11971;51.148;4.104;2023-03-01T04:33:51;59.47;;;32.50;;
23586;SDS011;11971;51.148;4.104;2023-03-01T04:36:19;57.60;;;33.25;;
23586;SDS011;11971;51.148;4.104;2023-03-01T04:38:47;59.28;;;33.30;;
23586;SDS011;11971;51.148;4.104;2023-03-01T04:41:14;61.75;;;33.72;;
23586;SDS011;11971;51.148;4.104;2023-03-01T04:43:42;54.25;;;31.65;;
23586;SDS011;11971;51.148;4.104;2023-03-01T04:46:11;56.42;;;32.35;;
23586;SDS011;11971;51.148;4.104;2023-03-01T04:48:40;55.70;;;32.42;;
23586;SDS011;11971;51.148;4.104;2023-03-01T04:51:07;55.88;;;32.63;;
23586;SDS011;11971;51.148;4.104;2023-03-01T04:53:34;62.40;;;34.25;;
23586;SDS011;11971;51.148;4.104;2023-03-01T04:56:01;56.23;;;31.93;;
23586;SDS011;11971;51.148;4.104;2023-03-01T04:58:28;52.25;;;31.65;;
23586;SDS011;11971;51.148;4.104;2023-03-01T05:00:55;61.88;;;33.22;;
23586;SDS011;11971;51.148;4.104;2023-03-01T05:03:24;53.20;;;31.55;;
23586;SDS011;11971;51.148;4.104;2023-03-01T05:05:51;54.28;;;31.67;;
23586;SDS011;11971;51.148;4.104;2023-03-01T05:08:18;52.13;;;31.67;;
23586;SDS011;11971;51.148;4.104;2023-03-01T05:10:46;59.33;;;33.13;;
23586;SDS011;11971;51.148;4.104;2023-03-01T05:13:14;57.85;;;33.58;;
23586;SDS011;11971;51.148;4.104;2023-03-01T05:15:46;61.25;;;33.30;;
23586;SDS011;11971;51.148;4.104;2023-03-01T05:18:13;57.65;;;32.90;;
23586;SDS011;11971;51.148;4.104;2023-03-01T05:20:40;60.45;;;33.45;;
23586;SDS011;11971;51.148;4.104;2023-03-01T05:23:07;64.90;;;34.15;;
23586;SDS011;11971;51.148;4.104;2023-03-01T05:25:34;57.25;;;33.33;;
23586;SDS011;11971;51.148;4.104;2023-03-01T05:28:05;57.75;;;32.83;;
23586;SDS011;11971;51.148;4.104;2023-03-01T05:30:32;56.50;;;32.92;;
23586;SDS011;11971;51.148;4.104;2023-03-01T05:32:59;59.42;;;33.78;;
23586;SDS011;11971;51.148;4.104;2023-03-01T05:35:26;63.47;;;33.42;;
23586;SDS011;11971;51.148;4.104;2023-03-01T05:37:56;54.83;;;33.00;;
23586;SDS011;11971;51.148;4.104;2023-03-01T05:40:23;63.97;;;33.53;;
23586;SDS011;11971;51.148;4.104;2023-03-01T05:42:52;57.00;;;33.03;;
23586;SDS011;11971;51.148;4.104;2023-03-01T05:45:20;59.42;;;33.38;;
23586;SDS011;11971;51.148;4.104;2023-03-01T05:47:47;60.80;;;33.20;;
23586;SDS011;11971;51.148;4.104;2023-03-01T05:50:15;58.13;;;33.03;;
23586;SDS011;11971;51.148;4.104;2023-03-01T05:52:45;62.10;;;33.65;;
23586;SDS011;11971;51.148;4.104;2023-03-01T05:57:41;58.63;;;32.85;;
23586;SDS011;11971;51.148;4.104;2023-03-01T06:00:08;58.67;;;33.03;;
23586;SDS011;11971;51.148;4.104;2023-03-01T06:05:03;53.35;;;32.15;;
23586;SDS011;11971;51.148;4.104;2023-03-01T06:07:31;53.33;;;31.52;;
23586;SDS011;11971;51.148;4.104;2023-03-01T06:09:57;56.20;;;32.55;;
23586;SDS011;11971;51.148;4.104;2023-03-01T06:12:25;58.03;;;33.42;;
23586;SDS011;11971;51.148;4.104;2023-03-01T06:14:52;58.63;;;32.65;;
23586;SDS011;11971;51.148;4.104;2023-03-01T06:17:18;56.40;;;32.63;;
23586;SDS011;11971;51.148;4.104;2023-03-01T06:19:46;55.22;;;32.50;;
23586;SDS011;11971;51.148;4.104;2023-03-01T06:22:12;55.67;;;32.30;;
23586;SDS011;11971;51.148;4.104;2023-03-01T06:24:39;61.78;;;33.40;;
23586;SDS011;11971;51.148;4.104;2023-03-01T06:27:06;60.10;;;33.55;;
23586;SDS011;11971;51.148;4.104;2023-03-01T06:29:34;57.63;;;32.08;;
23586;SDS011;11971;51.148;4.104;2023-03-01T06:32:01;59.40;;;33.22;;
23586;SDS011;11971;51.148;4.104;2023-03-01T06:34:28;55.67;;;32.35;;
23586;SDS011;11971;51.148;4.104;2023-03-01T06:36:55;56.30;;;31.98;;
23586;SDS011;11971;51.148;4.104;2023-03-01T06:39:21;55.30;;;32.20;;
23586;SDS011;11971;51.148;4.104;2023-03-01T06:41:48;56.67;;;33.00;;
23586;SDS011;11971;51.148;4.104;2023-03-01T06:44:15;58.53;;;32.85;;
23586;SDS011;11971;51.148;4.104;2023-03-01T06:46:43;58.55;;;33.10;;
23586;SDS011;11971;51.148;4.104;2023-03-01T06:49:10;56.90;;;33.60;;
23586;SDS011;11971;51.148;4.104;2023-03-01T06:51:36;61.28;;;33.55;;
23586;SDS011;11971;51.148;4.104;2023-03-01T06:54:03;57.28;;;31.33;;
23586;SDS011;11971;51.148;4.104;2023-03-01T06:56:30;55.15;;;32.13;;
23586;SDS011;11971;51.148;4.104;2023-03-01T06:58:57;57.30;;;32.00;;
23586;SDS011;11971;51.148;4.104;2023-03-01T07:01:23;59.25;;;32.35;;
23586;SDS011;11971;51.148;4.104;2023-03-01T07:03:52;59.88;;;32.47;;
23586;SDS011;11971;51.148;4.104;2023-03-01T07:06:18;55.08;;;32.35;;
23586;SDS011;11971;51.148;4.104;2023-03-01T07:08:45;57.28;;;32.13;;
23586;SDS011;11971;51.148;4.104;2023-03-01T07:11:12;55.00;;;32.53;;
23586;SDS011;11971;51.148;4.104;2023-03-01T07:13:38;57.45;;;33.20;;
23586;SDS011;11971;51.148;4.104;2023-03-01T07:16:05;59.42;;;33.50;;
23586;SDS011;11971;51.148;4.104;2023-03-01T07:18:32;57.25;;;32.92;;
23586;SDS011;11971;51.148;4.104;2023-03-01T07:21:04;60.88;;;34.22;;
23586;SDS011;11971;51.148;4.104;2023-03-01T07:23:31;65.32;;;31.65;;
23586;SDS011;11971;51.148;4.104;2023-03-01T07:25:58;58.95;;;32.20;;
23586;SDS011;11971;51.148;4.104;2023-03-01T07:28:25;57.22;;;33.53;;
23586;SDS011;11971;51.148;4.104;2023-03-01T07:30:52;61.28;;;33.08;;
23586;SDS011;11971;51.148;4.104;2023-03-01T07:33:19;58.20;;;33.22;;
23586;SDS011;11971;51.148;4.104;2023-03-01T07:35:46;59.97;;;32.15;;
23586;SDS011;11971;51.148;4.104;2023-03-01T07:38:14;62.42;;;33.50;;
23586;SDS011;11971;51.148;4.104;2023-03-01T07:40:40;60.38;;;32.80;;
23586;SDS011;11971;51.148;4.104;2023-03-01T07:43:07;56.55;;;32.45;;
23586;SDS011;11971;51.148;4.104;2023-03-01T07:45:33;59.42;;;33.55;;
23586;SDS011;11971;51.148;4.104;2023-03-01T07:48:00;59.78;;;33.28;;
23586;SDS011;11971;51.148;4.104;2023-03-01T07:50:27;64.82;;;33.15;;
23586;SDS011;11971;51.148;4.104;2023-03-01T07:52:54;60.50;;;33.03;;
23586;SDS011;11971;51.148;4.104;2023-03-01T07:55:22;59.28;;;33.13;;
23586;SDS011;11971;51.148;4.104;2023-03-01T07:57:48;72.90;;;33.35;;
23586;SDS011;11971;51.148;4.104;2023-03-01T08:00:15;62.17;;;33.15;;
23586;SDS011;11971;51.148;4.104;2023-03-01T08:02:42;61.30;;;33.25;;
23586;SDS011;11971;51.148;4.104;2023-03-01T08:05:09;66.80;;;35.42;;
23586;SDS011;11971;51.148;4.104;2023-03-01T08:07:36;64.07;;;33.58;;
23586;SDS011;11971;51.148;4.104;2023-03-01T08:10:03;64.53;;;34.47;;
23586;SDS011;11971;51.148;4.104;2023-03-01T08:12:32;63.05;;;33.60;;
23586;SDS011;11971;51.148;4.104;2023-03-01T08:14:59;71.03;;;34.00;;
23586;SDS011;11971;51.148;4.104;2023-03-01T08:17:25;66.65;;;34.42;;
23586;SDS011;11971;51.148;4.104;2023-03-01T08:19:52;65.80;;;34.85;;
23586;SDS011;11971;51.148;4.104;2023-03-01T08:22:19;62.53;;;33.58;;
23586;SDS011;11971;51.148;4.104;2023-03-01T08:24:46;67.60;;;35.22;;
23586;SDS011;11971;51.148;4.104;2023-03-01T08:27:14;63.40;;;33.50;;
23586;SDS011;11971;51.148;4.104;2023-03-01T08:29:42;64.20;;;33.20;;
23586;SDS011;11971;51.148;4.104;2023-03-01T08:32:09;59.30;;;31.67;;
23586;SDS011;11971;51.148;4.104;2023-03-01T08:34:35;64.75;;;33.55;;
23586;SDS011;11971;51.148;4.104;2023-03-01T08:37:02;65.45;;;33.92;;
23586;SDS011;11971;51.148;4.104;2023-03-01T08:39:29;61.05;;;32.70;;
23586;SDS011;11971;51.148;4.104;2023-03-01T08:41:55;64.30;;;34.25;;
23586;SDS011;11971;51.148;4.104;2023-03-01T08:44:23;63.42;;;33.53;;
23586;SDS011;11971;51.148;4.104;2023-03-01T08:46:51;68.78;;;34.05;;
23586;SDS011;11971;51.148;4.104;2023-03-01T08:49:19;66.40;;;34.10;;
23586;SDS011;11971;51.148;4.104;2023-03-01T08:51:46;65.03;;;33.60;;
23586;SDS011;11971;51.148;4.104;2023-03-01T08:54:14;65.63;;;33.50;;
23586;SDS011;11971;51.148;4.104;2023-03-01T08:56:43;67.90;;;33.80;;
23586;SDS011;11971;51.148;4.104;2023-03-01T08:59:09;69.25;;;34.30;;
23586;SDS011;11971;51.148;4.104;2023-03-01T09:01:36;65.25;;;32.67;;
23586;SDS011;11971;51.148;4.104;2023-03-01T09:04:04;61.47;;;32.25;;
23586;SDS011;11971;51.148;4.104;2023-03-01T09:06:31;65.05;;;33.20;;
23586;SDS011;11971;51.148;4.104;2023-03-01T09:08:58;61.63;;;31.23;;
23586;SDS011;11971;51.148;4.104;2023-03-01T09:11:25;61.17;;;31.20;;
23586;SDS011;11971;51.148;4.104;2023-03-01T09:13:52;66.72;;;33.78;;
23586;SDS011;11971;51.148;4.104;2023-03-01T09:16:19;66.22;;;33.78;;
23586;SDS011;11971;51.148;4.104;2023-03-01T09:18:48;62.17;;;32.70;;
23586;SDS011;11971;51.148;4.104;2023-03-01T09:21:16;68.32;;;33.05;;
23586;SDS011;11971;51.148;4.104;2023-03-01T09:23:46;67.25;;;33.65;;
23586;SDS011;11971;51.148;4.104;2023-03-01T09:26:14;60.95;;;31.73;;
23586;SDS011;11971;51.148;4.104;2023-03-01T09:28:44;67.88;;;34.15;;
23586;SDS011;11971;51.148;4.104;2023-03-01T09:31:11;70.43;;;34.33;;
23586;SDS011;11971;51.148;4.104;2023-03-01T09:33:38;60.85;;;31.25;;
23586;SDS011;11971;51.148;4.104;2023-03-01T09:36:06;66.63;;;33.45;;
23586;SDS011;11971;51.148;4.104;2023-03-01T09:38:35;68.40;;;33.20;;
23586;SDS011;11971;51.148;4.104;2023-03-01T09:41:02;67.80;;;34.10;;
23586;SDS011;11971;51.148;4.104;2023-03-01T09:43:30;69.10;;;33.78;;
23586;SDS011;11971;51.148;4.104;2023-03-01T09:46:00;64.20;;;32.90;;
23586;SDS011;11971;51.148;4.104;2023-03-01T09:48:31;67.32;;;33.65;;
23586;SDS011;11971;51.148;4.104;2023-03-01T09:51:02;68.70;;;33.72;;
23586;SDS011;11971;51.148;4.104;2023-03-01T09:53:36;72.50;;;34.08;;
23586;SDS011;11971;51.148;4.104;2023-03-01T09:56:04;67.87;;;34.70;;
23586;SDS011;11971;51.148;4.104;2023-03-01T10:01:06;68.78;;;33.35;;
23586;SDS011;11971;51.148;4.104;2023-03-01T10:03:41;65.47;;;33.28;;
23586;SDS011;11971;51.148;4.104;2023-03-01T10:06:11;69.13;;;34.92;;
23586;SDS011;11971;51.148;4.104;2023-03-01T10:08:41;66.15;;;32.00;;
23586;SDS011;11971;51.148;4.104;2023-03-01T10:11:17;70.43;;;34.55;;
23586;SDS011;11971;51.148;4.104;2023-03-01T10:13:47;70.60;;;34.22;;
23586;SDS011;11971;51.148;4.104;2023-03-01T10:16:19;65.40;;;32.30;;
23586;SDS011;11971;51.148;4.104;2023-03-01T10:18:51;71.07;;;34.40;;
23586;SDS011;11971;51.148;4.104;2023-03-01T10:21:20;70.55;;;34.85;;
23586;SDS011;11971;51.148;4.104;2023-03-01T10:23:49;71.28;;;35.33;;
23586;SDS011;11971;51.148;4.104;2023-03-01T10:26:22;72.57;;;33.75;;
23586;SDS011;11971;51.148;4.104;2023-03-01T10:29:01;70.75;;;34.38;;
23586;SDS011;11971;51.148;4.104;2023-03-01T10:31:32;70.63;;;35.22;;
23586;SDS011;11971;51.148;4.104;2023-03-01T10:34:04;70.22;;;34.45;;
23586;SDS011;11971;51.148;4.104;2023-03-01T10:36:34;74.32;;;35.58;;
23586;SDS011;11971;51.148;4.104;2023-03-01T10:39:04;77.75;;;34.72;;
23586;SDS011;11971;51.148;4.104;2023-03-01T10:41:40;68.47;;;33.45;;
23586;SDS011;11971;51.148;4.104;2023-03-01T10:44:36;73.72;;;34.85;;
23586;SDS011;11971;51.148;4.104;2023-03-01T10:47:07;72.50;;;34.97;;
23586;SDS011;11971;51.148;4.104;2023-03-01T10:49:42;70.03;;;34.47;;
23586;SDS011;11971;51.148;4.104;2023-03-01T10:52:18;68.20;;;34.05;;
23586;SDS011;11971;51.148;4.104;2023-03-01T10:54:52;70.60;;;34.13;;
23586;SDS011;11971;51.148;4.104;2023-03-01T10:57:27;74.65;;;34.58;;
23586;SDS011;11971;51.148;4.104;2023-03-01T11:00:18;63.90;;;31.98;;
23586;SDS011;11971;51.148;4.104;2023-03-01T11:02:48;71.75;;;35.03;;
23586;SDS011;11971;51.148;4.104;2023-03-01T11:05:16;69.50;;;33.60;;
23586;SDS011;11971;51.148;4.104;2023-03-01T11:07:48;72.53;;;34.95;;
23586;SDS011;11971;51.148;4.104;2023-03-01T11:10:22;69.80;;;34.33;;
23586;SDS011;11971;51.148;4.104;2023-03-01T11:12:50;68.10;;;33.50;;
23586;SDS011;11971;51.148;4.104;2023-03-01T11:15:21;70.22;;;34.25;;
23586;SDS011;11971;51.148;4.104;2023-03-01T11:17:50;71.03;;;34.88;;
23586;SDS011;11971;51.148;4.104;2023-03-01T11:20:19;69.88;;;34.00;;
23586;SDS011;11971;51.148;4.104;2023-03-01T11:22:52;70.10;;;32.92;;
23586;SDS011;11971;51.148;4.104;2023-03-01T11:25:23;76.28;;;35.40;;
23586;SDS011;11971;51.148;4.104;2023-03-01T11:27:51;75.50;;;35.25;;
23586;SDS011;11971;51.148;4.104;2023-03-01T11:30:19;73.03;;;35.47;;
23586;SDS011;11971;51.148;4.104;2023-03-01T11:32:50;65.78;;;32.42;;
23586;SDS011;11971;51.148;4.104;2023-03-01T11:35:26;72.70;;;34.47;;
23586;SDS011;11971;51.148;4.104;2023-03-01T11:37:57;71.55;;;35.03;;
23586;SDS011;11971;51.148;4.104;2023-03-01T11:40:28;70.70;;;34.03;;
23586;SDS011;11971;51.148;4.104;2023-03-01T11:43:01;72.13;;;34.60;;
23586;SDS011;11971;51.148;4.104;2023-03-01T11:45:34;65.22;;;32.10;;
23586;SDS011;11971;51.148;4.104;2023-03-01T11:48:24;67.97;;;33.15;;
23586;SDS011;11971;51.148;4.104;2023-03-01T11:53:33;67.45;;;33.42;;
23586;SDS011;11971;51.148;4.104;2023-03-01T11:56:12;76.25;;;35.10;;
23586;SDS011;11971;51.148;4.104;2023-03-01T11:58:48;75.80;;;35.60;;
23586;SDS011;11971;51.148;4.104;2023-03-01T12:01:35;71.82;;;33.88;;
23586;SDS011;11971;51.148;4.104;2023-03-01T12:04:14;72.97;;;35.08;;
23586;SDS011;11971;51.148;4.104;2023-03-01T12:06:52;66.15;;;32.33;;
23586;SDS011;11971;51.148;4.104;2023-03-01T12:09:30;73.07;;;33.95;;
23586;SDS011;11971;51.148;4.104;2023-03-01T12:12:11;65.47;;;32.40;;
23586;SDS011;11971;51.148;4.104;2023-03-01T12:14:53;75.78;;;34.95;;
23586;SDS011;11971;51.148;4.104;2023-03-01T12:17:40;70.65;;;34.70;;
23586;SDS011;11971;51.148;4.104;2023-03-01T12:20:20;67.72;;;32.67;;
23586;SDS011;11971;51.148;4.104;2023-03-01T12:22:53;73.40;;;33.75;;
23586;SDS011;11971;51.148;4.104;2023-03-01T12:25:31;65.55;;;32.30;;
23586;SDS011;11971;51.148;4.104;2023-03-01T12:31:09;66.13;;;32.45;;
23586;SDS011;11971;51.148;4.104;2023-03-01T12:33:45;72.85;;;34.55;;
23586;SDS011;11971;51.148;4.104;2023-03-01T12:36:21;68.70;;;33.63;;
23586;SDS011;11971;51.148;4.104;2023-03-01T12:38:57;74.10;;;35.10;;
23586;SDS011;11971;51.148;4.104;2023-03-01T12:41:30;67.82;;;33.20;;
23586;SDS011;11971;51.148;4.104;2023-03-01T12:44:11;71.25;;;34.97;;
23586;SDS011;11971;51.148;4.104;2023-03-01T12:46:47;71.95;;;35.13;;
23586;SDS011;11971;51.148;4.104;2023-03-01T12:49:22;64.90;;;31.70;;
23586;SDS011;11971;51.148;4.104;2023-03-01T12:51:54;65.57;;;31.58;;
23586;SDS011;11971;51.148;4.104;2023-03-01T12:54:25;72.45;;;35.17;;
23586;SDS011;11971;51.148;4.104;2023-03-01T12:56:53;68.25;;;33.53;;
23586;SDS011;11971;51.148;4.104;2023-03-01T12:59:23;72.47;;;34.88;;
23586;SDS011;11971;51.148;4.104;2023-03-01T13:01:52;75.30;;;34.78;;
23586;SDS011;11971;51.148;4.104;2023-03-01T13:09:41;70.75;;;34.97;;
23586;SDS011;11971;51.148;4.104;2023-03-01T13:18:02;72.10;;;34.50;;
23586;SDS011;11971;51.148;4.104;2023-03-01T13:20:30;70.88;;;34.03;;
23586;SDS011;11971;51.148;4.104;2023-03-01T13:23:01;75.10;;;34.15;;
23586;SDS011;11971;51.148;4.104;2023-03-01T13:25:29;67.00;;;32.60;;
23586;SDS011;11971;51.148;4.104;2023-03-01T13:30:57;78.03;;;33.25;;
23586;SDS011;11971;51.148;4.104;2023-03-01T13:33:39;70.68;;;34.15;;
23586;SDS011;11971;51.148;4.104;2023-03-01T13:36:07;73.25;;;35.28;;
23586;SDS011;11971;51.148;4.104;2023-03-01T13:38:45;77.10;;;35.45;;
23586;SDS011;11971;51.148;4.104;2023-03-01T13:41:13;72.75;;;35.17;;
23586;SDS011;11971;51.148;4.104;2023-03-01T13:43:40;71.25;;;33.90;;
23586;SDS011;11971;51.148;4.104;2023-03-01T13:46:10;67.80;;;32.20;;
23586;SDS011;11971;51.148;4.104;2023-03-01T13:48:38;73.63;;;35.33;;
23586;SDS011;11971;51.148;4.104;2023-03-01T13:51:07;74.05;;;34.97;;
23586;SDS011;11971;51.148;4.104;2023-03-01T13:53:36;75.05;;;34.83;;
23586;SDS011;11971;51.148;4.104;2023-03-01T13:56:07;74.00;;;35.38;;
23586;SDS011;11971;51.148;4.104;2023-03-01T13:58:43;76.43;;;36.40;;
23586;SDS011;11971;51.148;4.104;2023-03-01T14:01:20;74.22;;;35.05;;
23586;SDS011;11971;51.148;4.104;2023-03-01T14:03:48;75.38;;;36.50;;
23586;SDS011;11971;51.148;4.104;2023-03-01T14:06:16;71.32;;;34.55;;
23586;SDS011;11971;51.148;4.104;2023-03-01T14:08:48;72.50;;;35.20;;
23586;SDS011;11971;51.148;4.104;2023-03-01T14:20:08;76.00;;;35.88;;
23586;SDS011;11971;51.148;4.104;2023-03-01T14:22:38;75.65;;;35.72;;
23586;SDS011;11971;51.148;4.104;2023-03-01T14:25:16;75.18;;;35.50;;
23586;SDS011;11971;51.148;4.104;2023-03-01T14:27:46;75.47;;;35.65;;
23586;SDS011;11971;51.148;4.104;2023-03-01T14:30:19;76.10;;;35.38;;
23586;SDS011;11971;51.148;4.104;2023-03-01T14:32:53;75.70;;;35.47;;
23586;SDS011;11971;51.148;4.104;2023-03-01T14:35:22;76.50;;;36.05;;
23586;SDS011;11971;51.148;4.104;2023-03-01T14:37:49;74.70;;;35.15;;
23586;SDS011;11971;51.148;4.104;2023-03-01T14:40:21;74.25;;;35.65;;
23586;SDS011;11971;51.148;4.104;2023-03-01T14:42:49;77.05;;;35.75;;
23586;SDS011;11971;51.148;4.104;2023-03-01T14:45:16;75.38;;;35.63;;
23586;SDS011;11971;51.148;4.104;2023-03-01T14:47:43;73.53;;;34.95;;
23586;SDS011;11971;51.148;4.104;2023-03-01T14:50:15;75.43;;;36.00;;
23586;SDS011;11971;51.148;4.104;2023-03-01T14:52:47;77.07;;;36.20;;
23586;SDS011;11971;51.148;4.104;2023-03-01T14:55:15;79.78;;;36.20;;
23586;SDS011;11971;51.148;4.104;2023-03-01T14:57:43;67.10;;;32.38;;
23586;SDS011;11971;51.148;4.104;2023-03-01T15:00:11;78.95;;;36.22;;
23586;SDS011;11971;51.148;4.104;2023-03-01T15:02:43;75.22;;;35.85;;
23586;SDS011;11971;51.148;4.104;2023-03-01T15:05:13;70.30;;;33.45;;
23586;SDS011;11971;51.148;4.104;2023-03-01T15:07:42;72.60;;;34.65;;
23586;SDS011;11971;51.148;4.104;2023-03-01T15:10:14;76.68;;;35.50;;
23586;SDS011;11971;51.148;4.104;2023-03-01T15:12:46;71.57;;;34.55;;
23586;SDS011;11971;51.148;4.104;2023-03-01T15:15:19;74.25;;;36.00;;
23586;SDS011;11971;51.148;4.104;2023-03-01T15:17:51;77.47;;;35.85;;